LaGuardia Airport

Airport
ICAO code: 
KLGA
Summary
ICAO Region: 
NAM
Territory: 
Location: 
East Elmhurst, Queens, New York,
Coordinates: 
Aerial View: 
40° 46' 37.916" N, 73° 52' 21.349" W
Airport BS: 
Bird Strike
Airport RE: 
Engineered Materials Arresting System
Metar
Observation
KLGA 021451Z 22009KT 10SM SCT100 BKN180 BKN250 12/06 A2980 RMK AO2 SLP090 T01170056 58018
Station
New York, La Guardia Airport
Date/Time
2021-12-02 14:51:00
Wind direction
220°
Wind speed
09 kts
Lowest cloud amount
scattered clouds
Temperature
11.7°C
Dew point
5.6°C
Humidity
66%
Weather condition
n/a

Description

Airport serving the city of New York, NY, USA.

Climatology

Humid “subtropical” climate (Köppen climate classification Cfa) - characterized by hot, humid summers and cool winters. Significant amounts of precipitation occur in all seasons in most areas. Winter rainfall (and sometimes snowfall) is associated with large storms that the westerlies steer from west to east. Most summer rainfall occurs during thunderstorms.

Runways

Designator Length Width Surface Rops
4/22 2134 46 ASP Yes/Yes
13/31 2134 46 ASP Yes/Yes

SKYbrary Partners:

Safety knowledge contributed by: